createdAt,value
2023-03-26T00:02:14.790Z,5.63
2023-03-26T00:05:21.805Z,5.17
2023-03-26T00:08:24.902Z,6.63
2023-03-26T00:11:31.000Z,6.07
2023-03-26T00:14:36.463Z,6.53
2023-03-26T00:17:39.572Z,6.67
2023-03-26T00:20:42.590Z,5.10
2023-03-26T00:23:46.062Z,5.00
2023-03-26T00:26:53.489Z,5.10
2023-03-26T00:29:59.675Z,4.40
2023-03-26T00:33:03.107Z,4.57
2023-03-26T00:36:10.022Z,4.93
2023-03-26T00:39:14.081Z,5.03
2023-03-26T00:42:17.029Z,4.27
2023-03-26T00:45:22.343Z,4.03
2023-03-26T00:48:41.930Z,3.90
2023-03-26T00:51:47.826Z,4.53
2023-03-26T00:54:53.245Z,4.30
2023-03-26T00:57:56.408Z,3.60
2023-03-26T01:01:03.977Z,3.30
2023-03-26T01:04:27.339Z,4.77
2023-03-26T01:07:31.237Z,4.90
2023-03-26T01:10:38.892Z,4.93
2023-03-26T01:13:45.909Z,4.77
2023-03-26T01:16:54.843Z,3.60
2023-03-26T01:20:07.124Z,4.10
2023-03-26T01:23:10.989Z,3.70
2023-03-26T01:26:37.755Z,3.57
2023-03-26T01:29:52.618Z,3.43
2023-03-26T01:33:03.290Z,4.37
2023-03-26T01:36:13.255Z,5.30
2023-03-26T01:39:25.280Z,5.17
2023-03-26T01:42:38.694Z,3.90
2023-03-26T01:45:46.225Z,4.30
2023-03-26T01:48:51.062Z,5.93
2023-03-26T01:52:00.614Z,4.57
2023-03-26T01:55:04.192Z,4.23
2023-03-26T01:58:15.424Z,3.70
2023-03-26T02:01:27.807Z,3.70
2023-03-26T02:04:37.795Z,4.80
2023-03-26T02:07:47.897Z,4.70
2023-03-26T02:10:57.475Z,4.07
2023-03-26T02:14:01.878Z,3.77
2023-03-26T02:17:04.965Z,3.60
2023-03-26T02:20:10.813Z,3.03
2023-03-26T02:23:16.397Z,3.57
2023-03-26T02:26:21.152Z,3.90
2023-03-26T02:29:43.441Z,3.33
2023-03-26T02:33:06.612Z,3.50
2023-03-26T02:36:19.605Z,3.87
2023-03-26T02:39:23.711Z,4.00
2023-03-26T02:42:34.808Z,3.80
2023-03-26T02:45:39.338Z,3.70
2023-03-26T02:48:43.988Z,4.00
2023-03-26T02:51:56.325Z,4.60
2023-03-26T02:55:03.401Z,4.33
2023-03-26T02:58:07.748Z,4.23
2023-03-26T03:01:18.473Z,3.57
2023-03-26T03:04:28.667Z,3.83
2023-03-26T03:07:31.725Z,4.37
2023-03-26T03:10:37.873Z,3.83
2023-03-26T03:13:46.995Z,3.83
2023-03-26T03:17:00.631Z,4.20
2023-03-26T03:20:07.854Z,4.50
2023-03-26T03:23:10.991Z,4.10
2023-03-26T03:26:17.033Z,4.57
2023-03-26T03:29:26.649Z,4.90
2023-03-26T03:32:31.889Z,4.80
2023-03-26T03:35:39.952Z,4.20
2023-03-26T03:38:45.752Z,5.03
2023-03-26T03:41:53.542Z,4.73
2023-03-26T03:44:56.878Z,4.77
2023-03-26T03:48:20.529Z,4.73
2023-03-26T03:51:24.750Z,5.17
2023-03-26T03:54:34.050Z,4.90
2023-03-26T03:57:44.355Z,5.10
2023-03-26T04:00:53.567Z,4.73
2023-03-26T04:04:16.682Z,5.33
2023-03-26T04:07:31.030Z,4.23
2023-03-26T04:11:03.135Z,4.90
2023-03-26T04:14:36.491Z,5.53
2023-03-26T04:17:53.988Z,5.77
2023-03-26T04:21:02.384Z,6.70
2023-03-26T04:24:08.085Z,5.03
2023-03-26T04:27:35.405Z,4.70
2023-03-26T04:31:03.719Z,4.33
2023-03-26T04:34:24.255Z,4.77
2023-03-26T04:37:49.124Z,5.30
2023-03-26T04:41:00.523Z,6.70
2023-03-26T04:44:23.219Z,4.97
2023-03-26T04:47:31.592Z,5.17
2023-03-26T04:50:34.578Z,4.90
2023-03-26T04:53:39.246Z,5.57
2023-03-26T04:57:04.407Z,5.03
2023-03-26T05:00:19.375Z,5.47
2023-03-26T05:03:31.278Z,5.10
2023-03-26T05:06:39.760Z,4.80
2023-03-26T05:09:52.767Z,6.03
2023-03-26T05:13:00.318Z,3.80
2023-03-26T05:16:10.755Z,4.70
2023-03-26T05:19:22.068Z,5.27
2023-03-26T05:22:25.728Z,4.57
2023-03-26T05:25:50.681Z,4.80
2023-03-26T05:28:57.938Z,6.13
2023-03-26T05:32:10.312Z,4.17
2023-03-26T05:38:47.268Z,5.63
2023-03-26T05:41:57.998Z,5.43
2023-03-26T05:45:14.843Z,5.13
2023-03-26T05:48:18.456Z,4.90
2023-03-26T05:51:23.401Z,5.87
2023-03-26T05:54:37.289Z,4.50
2023-03-26T05:58:04.219Z,4.57
2023-03-26T06:01:29.330Z,4.50
2023-03-26T06:04:52.524Z,5.03
2023-03-26T06:08:07.359Z,4.30
2023-03-26T06:11:14.377Z,4.30
2023-03-26T06:14:18.722Z,4.10
2023-03-26T06:17:41.582Z,4.30
2023-03-26T06:20:55.378Z,4.30
2023-03-26T06:24:07.829Z,3.53
2023-03-26T06:27:23.570Z,4.17
2023-03-26T06:30:51.330Z,4.37
2023-03-26T06:34:06.838Z,4.83
2023-03-26T06:37:11.174Z,4.77
2023-03-26T06:40:15.892Z,4.37
2023-03-26T06:43:48.109Z,5.93
2023-03-26T06:47:16.357Z,5.83
2023-03-26T06:50:38.311Z,5.63
2023-03-26T06:53:56.978Z,5.13
2023-03-26T06:57:19.556Z,4.90
2023-03-26T07:00:42.208Z,4.30
2023-03-26T07:04:13.110Z,5.00
2023-03-26T07:07:34.717Z,4.77
2023-03-26T07:11:22.252Z,4.40
2023-03-26T07:14:48.610Z,5.60
2023-03-26T07:18:15.008Z,5.60
2023-03-26T07:21:21.917Z,4.80
2023-03-26T07:24:26.353Z,5.73
2023-03-26T07:27:54.360Z,4.37
2023-03-26T07:31:22.797Z,5.03
2023-03-26T07:34:47.269Z,4.00
2023-03-26T07:38:24.688Z,3.73
2023-03-26T07:41:48.116Z,4.73
2023-03-26T07:45:27.332Z,5.23
2023-03-26T07:48:43.740Z,5.70
2023-03-26T07:51:52.056Z,3.50
2023-03-26T07:55:15.920Z,3.57
2023-03-26T07:59:07.925Z,4.10
2023-03-26T08:02:36.915Z,3.47
2023-03-26T08:06:08.264Z,3.50
2023-03-26T08:09:24.901Z,3.47
2023-03-26T08:12:49.407Z,3.50
2023-03-26T08:16:05.795Z,3.77
2023-03-26T08:19:30.923Z,4.10
2023-03-26T08:22:40.952Z,4.40
2023-03-26T08:25:54.683Z,4.50
2023-03-26T08:29:12.026Z,4.33
2023-03-26T08:32:17.792Z,4.00
2023-03-26T08:35:20.796Z,4.57
2023-03-26T08:38:24.335Z,5.80
2023-03-26T08:42:08.856Z,4.43
2023-03-26T08:45:58.913Z,4.63
2023-03-26T08:49:42.308Z,4.20
2023-03-26T08:53:28.145Z,4.87
2023-03-26T08:56:53.776Z,5.20
2023-03-26T09:00:38.891Z,4.40
2023-03-26T09:04:17.921Z,4.57
2023-03-26T09:08:07.502Z,4.67
2023-03-26T09:11:38.238Z,3.73
2023-03-26T09:15:22.176Z,4.63
2023-03-26T09:19:16.540Z,4.83
2023-03-26T09:23:15.062Z,4.50
2023-03-26T09:26:40.246Z,4.13
2023-03-26T09:30:21.113Z,4.17
2023-03-26T09:33:55.963Z,4.43
2023-03-26T09:37:27.435Z,3.90
2023-03-26T09:40:39.629Z,4.47
2023-03-26T09:44:45.697Z,4.70
2023-03-26T09:48:07.465Z,4.00
2023-03-26T09:51:46.488Z,3.27
2023-03-26T09:55:15.385Z,4.07
2023-03-26T09:58:49.717Z,4.03
2023-03-26T10:02:10.980Z,3.97
2023-03-26T10:05:50.988Z,4.37
2023-03-26T10:09:22.544Z,5.33
2023-03-26T10:12:37.397Z,5.63
2023-03-26T10:16:04.253Z,5.03
2023-03-26T10:19:24.868Z,5.00
2023-03-26T10:22:44.393Z,6.10
2023-03-26T10:26:07.146Z,5.03
2023-03-26T10:29:41.262Z,4.63
2023-03-26T10:32:59.322Z,5.17
2023-03-26T10:36:26.750Z,4.57
2023-03-26T10:40:09.874Z,5.40
2023-03-26T10:43:49.765Z,4.87
2023-03-26T10:47:32.100Z,5.90
2023-03-26T10:51:00.923Z,5.93
2023-03-26T10:54:12.318Z,4.40
2023-03-26T10:57:34.914Z,5.60
2023-03-26T11:00:45.493Z,5.67
2023-03-26T11:03:52.651Z,5.53
2023-03-26T11:07:05.204Z,5.00
2023-03-26T11:10:13.697Z,5.13
2023-03-26T11:13:25.593Z,5.20
2023-03-26T11:16:42.428Z,5.47
2023-03-26T11:19:53.324Z,5.70
2023-03-26T11:23:16.564Z,5.63
2023-03-26T11:26:28.633Z,5.80
2023-03-26T11:29:48.858Z,6.23
2023-03-26T11:32:55.797Z,6.23
2023-03-26T11:36:04.782Z,5.33
2023-03-26T11:39:14.618Z,5.73
2023-03-26T11:42:23.394Z,6.33
2023-03-26T11:45:30.748Z,5.20
2023-03-26T11:48:41.801Z,4.33
2023-03-26T11:51:49.772Z,4.60
2023-03-26T11:54:53.245Z,5.60
2023-03-26T11:58:00.651Z,5.67
2023-03-26T12:01:14.918Z,9.47
2023-03-26T12:04:28.200Z,5.50
2023-03-26T12:07:35.634Z,4.37
2023-03-26T12:10:41.313Z,8.10
2023-03-26T12:13:54.354Z,4.73
2023-03-26T12:17:04.608Z,5.60
2023-03-26T12:20:34.703Z,5.03
2023-03-26T12:23:57.034Z,4.23
2023-03-26T12:27:03.536Z,4.50
2023-03-26T12:30:13.865Z,4.30
2023-03-26T12:33:26.039Z,5.37
2023-03-26T12:36:33.300Z,5.20
2023-03-26T12:40:06.516Z,4.17
2023-03-26T12:44:50.878Z,4.83
2023-03-26T12:48:00.392Z,4.30
2023-03-26T12:50:00.297Z,4.13
2023-03-26T12:53:38.444Z,4.10
2023-03-26T12:57:12.250Z,3.47
2023-03-26T13:00:28.789Z,3.23
2023-03-26T13:03:42.710Z,4.07
2023-03-26T13:07:01.547Z,3.20
2023-03-26T13:10:36.081Z,3.73
2023-03-26T13:14:10.565Z,5.07
2023-03-26T13:17:24.665Z,3.83
2023-03-26T13:20:39.715Z,4.10
2023-03-26T13:23:53.139Z,3.93
2023-03-26T13:27:12.347Z,3.57
2023-03-26T13:30:28.700Z,3.30
2023-03-26T13:33:50.647Z,3.20
2023-03-26T13:37:10.567Z,4.07
2023-03-26T13:40:27.228Z,4.40
2023-03-26T13:43:44.816Z,4.73
2023-03-26T13:46:51.834Z,4.20
2023-03-26T13:50:00.601Z,3.43
2023-03-26T13:53:13.415Z,3.37
2023-03-26T13:56:22.104Z,3.60
2023-03-26T13:59:33.590Z,3.10
2023-03-26T14:02:42.540Z,3.80
2023-03-26T14:05:49.609Z,3.97
2023-03-26T14:08:58.730Z,2.87
2023-03-26T14:12:32.709Z,2.87
2023-03-26T14:15:43.315Z,3.33
2023-03-26T14:18:53.640Z,3.60
2023-03-26T14:22:14.027Z,3.07
2023-03-26T14:25:38.945Z,3.40
2023-03-26T14:29:19.686Z,3.00
2023-03-26T14:32:53.709Z,3.30
2023-03-26T14:36:07.941Z,2.53
2023-03-26T14:39:44.807Z,2.63
2023-03-26T14:42:56.590Z,3.30
2023-03-26T14:46:17.675Z,3.87
2023-03-26T14:50:05.020Z,3.30
2023-03-26T14:53:19.772Z,2.97
2023-03-26T14:56:54.333Z,3.50
2023-03-26T15:01:04.018Z,3.13
2023-03-26T15:04:44.535Z,3.10
2023-03-26T15:08:33.343Z,3.17
2023-03-26T15:11:48.046Z,3.17
2023-03-26T15:15:54.210Z,2.93
2023-03-26T15:20:00.736Z,3.30
2023-03-26T15:23:47.238Z,3.43
2023-03-26T15:27:38.236Z,3.03
2023-03-26T15:31:10.833Z,2.90
2023-03-26T15:34:57.249Z,3.00
2023-03-26T15:38:45.332Z,2.90
2023-03-26T15:41:55.178Z,2.80
2023-03-26T15:45:20.349Z,3.47
2023-03-26T15:48:50.635Z,3.47
2023-03-26T15:52:00.704Z,3.23
2023-03-26T15:55:26.409Z,4.23
2023-03-26T15:58:35.378Z,4.20
2023-03-26T16:02:05.177Z,3.10
2023-03-26T16:05:33.171Z,3.30
2023-03-26T16:08:47.471Z,4.30
2023-03-26T16:11:55.352Z,3.37
2023-03-26T16:15:27.719Z,3.43
2023-03-26T16:18:37.145Z,3.63
2023-03-26T16:21:54.389Z,3.73
2023-03-26T16:25:28.537Z,3.53
2023-03-26T16:28:35.779Z,3.50
2023-03-26T16:32:04.745Z,3.23
2023-03-26T16:35:39.876Z,3.87
2023-03-26T16:39:14.746Z,3.53
2023-03-26T16:42:35.717Z,4.03
2023-03-26T16:45:50.562Z,3.60
2023-03-26T16:49:02.120Z,4.20
2023-03-26T16:52:23.880Z,4.03
2023-03-26T16:55:41.057Z,3.43
2023-03-26T16:58:55.935Z,3.67
2023-03-26T17:02:16.099Z,4.10
2023-03-26T17:05:23.804Z,3.87
2023-03-26T17:08:37.187Z,3.30
2023-03-26T17:11:56.530Z,3.83
2023-03-26T17:15:15.266Z,3.80
2023-03-26T17:18:34.277Z,3.13
2023-03-26T17:21:49.113Z,3.87
2023-03-26T17:25:00.350Z,3.70
2023-03-26T17:28:39.452Z,4.30
2023-03-26T17:31:46.217Z,4.20
2023-03-26T17:35:11.155Z,4.63
2023-03-26T17:38:57.947Z,4.07
2023-03-26T17:42:37.006Z,4.80
2023-03-26T17:45:42.071Z,4.30
2023-03-26T17:48:49.709Z,5.17
2023-03-26T17:52:00.001Z,4.37
2023-03-26T17:55:04.429Z,4.23
2023-03-26T17:58:21.726Z,4.00
2023-03-26T18:01:31.268Z,4.10
2023-03-26T18:04:38.867Z,4.13
2023-03-26T18:08:40.689Z,4.50
2023-03-26T18:12:23.066Z,4.50
2023-03-26T18:15:38.829Z,4.57
2023-03-26T18:18:49.675Z,4.53
2023-03-26T18:21:59.561Z,4.40
2023-03-26T18:25:05.244Z,4.67
2023-03-26T18:28:08.257Z,4.70
2023-03-26T18:31:18.576Z,4.83
2023-03-26T18:34:22.263Z,4.20
2023-03-26T18:37:28.276Z,5.27
2023-03-26T18:40:36.191Z,6.13
2023-03-26T18:43:44.498Z,5.23
2023-03-26T18:46:48.049Z,4.70
2023-03-26T18:49:56.456Z,5.30
2023-03-26T18:53:00.972Z,4.70
2023-03-26T18:56:21.497Z,5.53
2023-03-26T18:59:32.027Z,5.40
2023-03-26T19:02:35.778Z,5.70
2023-03-26T19:05:38.969Z,5.33
2023-03-26T19:08:46.266Z,6.03
2023-03-26T19:11:52.230Z,5.33
2023-03-26T19:14:58.629Z,5.60
2023-03-26T19:18:07.291Z,4.17
2023-03-26T19:21:11.194Z,4.90
2023-03-26T19:24:14.931Z,5.03
2023-03-26T19:27:19.271Z,4.23
2023-03-26T19:30:30.282Z,5.00
2023-03-26T19:33:37.017Z,4.57
2023-03-26T19:36:57.975Z,4.87
2023-03-26T19:40:07.652Z,4.70
2023-03-26T19:43:14.707Z,5.10
2023-03-26T19:46:18.712Z,5.43
2023-03-26T19:49:32.835Z,4.50
2023-03-26T19:52:39.398Z,7.03
2023-03-26T19:55:43.393Z,5.10
2023-03-26T19:58:50.072Z,4.63
2023-03-26T20:01:53.499Z,4.50
2023-03-26T20:04:56.951Z,5.70
2023-03-26T20:08:03.164Z,5.20
2023-03-26T20:11:17.529Z,5.50
2023-03-26T20:14:25.889Z,5.73
2023-03-26T20:17:30.833Z,5.00
2023-03-26T20:20:37.028Z,4.43
2023-03-26T20:23:40.906Z,5.63
2023-03-26T20:26:43.880Z,5.37
2023-03-26T20:29:51.559Z,6.57
2023-03-26T20:33:12.417Z,5.00
2023-03-26T20:36:34.232Z,5.37
2023-03-26T20:39:39.605Z,5.63
2023-03-26T20:42:44.603Z,5.40
2023-03-26T20:45:49.713Z,5.80
2023-03-26T20:48:54.054Z,5.40
2023-03-26T20:51:59.414Z,6.17
2023-03-26T20:55:06.159Z,5.37
2023-03-26T20:58:14.021Z,5.20
2023-03-26T21:01:19.704Z,5.40
2023-03-26T21:04:24.221Z,5.03
2023-03-26T21:07:27.269Z,4.57
2023-03-26T21:10:31.350Z,4.83
2023-03-26T21:13:38.700Z,5.47
2023-03-26T21:16:43.962Z,4.57
2023-03-26T21:19:48.313Z,4.60
2023-03-26T21:23:00.108Z,4.60
2023-03-26T21:26:12.540Z,5.13
2023-03-26T21:29:16.287Z,5.30
2023-03-26T21:32:22.485Z,5.37
2023-03-26T21:35:26.751Z,5.43
2023-03-26T21:38:32.318Z,5.20
2023-03-26T21:41:44.702Z,5.13
2023-03-26T21:44:48.438Z,4.77
2023-03-26T21:47:54.045Z,6.23
2023-03-26T21:51:02.376Z,5.30
2023-03-26T21:54:07.404Z,5.23
2023-03-26T21:57:40.505Z,5.13
2023-03-26T22:01:04.690Z,4.57
2023-03-26T22:04:17.018Z,5.40
2023-03-26T22:07:24.847Z,5.00
2023-03-26T22:10:28.442Z,5.93
2023-03-26T22:13:31.466Z,5.20
2023-03-26T22:16:37.125Z,5.83
2023-03-26T22:19:41.905Z,5.87
2023-03-26T22:22:48.562Z,5.57
2023-03-26T22:25:54.120Z,5.23
2023-03-26T22:28:57.786Z,4.83
2023-03-26T22:32:00.838Z,4.80
2023-03-26T22:35:07.029Z,4.27
2023-03-26T22:38:11.673Z,7.27
2023-03-26T22:41:14.894Z,4.60
2023-03-26T22:44:20.302Z,6.30
2023-03-26T22:47:23.648Z,7.83
2023-03-26T22:50:28.368Z,5.90
2023-03-26T22:53:32.273Z,6.23
2023-03-26T22:56:36.131Z,5.27
2023-03-26T22:59:39.562Z,5.17
2023-03-26T23:02:44.760Z,4.70
2023-03-26T23:05:59.478Z,4.80
2023-03-26T23:09:07.012Z,4.70
2023-03-26T23:12:10.054Z,4.43
2023-03-26T23:15:14.178Z,4.70
2023-03-26T23:18:17.774Z,4.80
2023-03-26T23:21:23.082Z,5.77
2023-03-26T23:24:27.072Z,4.43
2023-03-26T23:27:30.014Z,3.87
2023-03-26T23:30:34.088Z,5.13
2023-03-26T23:33:39.478Z,4.80
2023-03-26T23:36:44.809Z,5.07
2023-03-26T23:39:51.294Z,3.60
2023-03-26T23:42:55.506Z,4.00
2023-03-26T23:45:59.430Z,5.37
2023-03-26T23:49:03.861Z,4.90
2023-03-26T23:52:08.328Z,4.47
2023-03-26T23:55:11.562Z,4.30
2023-03-26T23:58:14.865Z,4.73
